Time;durP1;ratioP1;P1;durP2;ratioP2;P2;SDS_P1;SDS_P2;PMS_P1;PMS_P2;Temp;Humidity;BMP_temperature;BMP_pressure;BME280_temperature;BME280_humidity;BME280_pressure;Samples;Min_cycle;Max_cycle;Signal;HPM_P1;HPM_P2
2021/11/01 00:00:00;;;;;;;6.93;1.30;;;22.60;93.90;;;;;;5073351;28;20183;-67
2021/11/01 00:02:29;;;;;;;4.33;1.17;;;23.00;94.10;;;;;;5073562;28;20198;-69
2021/11/01 00:04:56;;;;;;;6.77;1.20;;;23.10;93.80;;;;;;5074317;28;20210;-69
2021/11/01 00:07:24;;;;;;;8.23;1.33;;;22.90;93.80;;;;;;5066104;28;20176;-70
2021/11/01 00:09:51;;;;;;;7.80;1.30;;;22.90;93.90;;;;;;5067109;28;20226;-70
2021/11/01 00:12:19;;;;;;;10.10;1.83;;;23.00;94.00;;;;;;5067241;28;20219;-68
2021/11/01 00:14:46;;;;;;;9.43;1.47;;;23.20;93.80;;;;;;5072283;28;20294;-69
2021/11/01 00:17:13;;;;;;;5.37;1.43;;;23.30;93.40;;;;;;5071320;28;20215;-67
2021/11/01 00:19:41;;;;;;;9.40;1.70;;;23.70;93.30;;;;;;5073313;28;20217;-72
2021/11/01 00:22:08;;;;;;;5.43;1.23;;;23.80;92.40;;;;;;5074432;28;20176;-69
2021/11/01 00:24:36;;;;;;;4.87;1.10;;;23.80;92.20;;;;;;5074496;28;20649;-70
2021/11/01 00:27:03;;;;;;;5.40;1.10;;;23.60;92.40;;;;;;5073174;28;20186;-70
2021/11/01 00:29:30;;;;;;;5.57;1.20;;;23.40;92.50;;;;;;5073827;28;20191;-68
2021/11/01 00:31:58;;;;;;;4.00;1.00;;;23.00;92.70;;;;;;5055944;28;20984;-70
2021/11/01 00:34:25;;;;;;;5.20;1.10;;;22.70;92.70;;;;;;5070610;28;20182;-70
2021/11/01 00:36:53;;;;;;;5.83;1.17;;;22.50;92.90;;;;;;5063324;28;20560;-70
2021/11/01 00:39:21;;;;;;;6.03;1.53;;;22.40;93.30;;;;;;5058718;28;20596;-71
2021/11/01 00:41:48;;;;;;;8.07;1.20;;;22.60;93.50;;;;;;5073454;28;20186;-68
2021/11/01 00:44:16;;;;;;;4.87;1.10;;;22.70;93.60;;;;;;5073869;28;20696;-68
2021/11/01 00:46:43;;;;;;;5.53;1.27;;;22.80;93.80;;;;;;5073438;28;20269;-70
2021/11/01 00:49:11;;;;;;;6.50;1.37;;;23.10;93.70;;;;;;5074125;28;20171;-66
2021/11/01 00:51:41;;;;;;;8.60;1.60;;;23.20;94.10;;;;;;5073317;28;20187;-73
2021/11/01 00:54:09;;;;;;;6.73;1.17;;;23.30;93.60;;;;;;5073097;28;20207;-68
2021/11/01 00:56:37;;;;;;;4.50;1.17;;;23.60;93.90;;;;;;5073291;28;20292;-69
2021/11/01 00:59:04;;;;;;;6.47;1.30;;;23.60;93.70;;;;;;5105839;28;20580;-69
2021/11/01 01:01:33;;;;;;;9.37;1.73;;;23.40;93.70;;;;;;5072833;28;20548;-69
2021/11/01 01:04:01;;;;;;;6.97;1.50;;;23.10;94.40;;;;;;5073112;28;20183;-71
2021/11/01 01:06:29;;;;;;;9.10;1.43;;;22.80;94.40;;;;;;5073398;28;20194;-70
2021/11/01 01:08:57;;;;;;;8.93;1.40;;;22.60;94.60;;;;;;5073290;28;20180;-74
2021/11/01 01:11:24;;;;;;;10.90;1.73;;;22.70;94.50;;;;;;5072656;28;20248;-70
2021/11/01 01:13:53;;;;;;;7.03;1.30;;;22.80;94.40;;;;;;5067417;28;20199;-72
2021/11/01 01:18:52;;;;;;;9.17;1.23;;;23.30;94.40;;;;;;5073651;28;20198;-68
2021/11/01 01:24:05;;;;;;;11.40;1.50;;;23.70;93.50;;;;;;5072480;28;20272;-69
2021/11/01 01:26:33;;;;;;;10.27;1.67;;;23.80;94.10;;;;;;5073292;28;20564;-69
2021/11/01 01:29:00;;;;;;;6.37;1.27;;;23.60;94.20;;;;;;5072271;28;20275;-70
2021/11/01 01:31:28;;;;;;;7.50;1.60;;;23.90;93.50;;;;;;5072117;28;20175;-67
2021/11/01 01:33:55;;;;;;;11.80;1.67;;;24.10;93.20;;;;;;5071736;28;20634;-71
2021/11/01 01:36:23;;;;;;;11.10;1.60;;;24.10;93.20;;;;;;5073204;28;20206;-70
2021/11/01 01:38:50;;;;;;;5.03;1.30;;;24.10;92.80;;;;;;5072404;28;20179;-68
2021/11/01 01:41:26;;;;;;;4.07;1.20;;;23.90;93.20;;;;;;5072032;28;20233;-69
2021/11/01 01:43:57;;;;;;;4.13;1.33;;;23.90;92.90;;;;;;5069264;28;20229;-71
2021/11/01 01:46:26;;;;;;;5.97;1.10;;;23.70;92.90;;;;;;5072630;28;20193;-71
2021/11/01 01:48:54;;;;;;;6.10;1.07;;;23.80;93.00;;;;;;5072295;28;20652;-72
2021/11/01 01:51:25;;;;;;;7.70;1.30;;;24.10;93.10;;;;;;5071715;28;20183;-72
2021/11/01 01:53:52;;;;;;;8.17;1.50;;;24.00;93.10;;;;;;5072258;28;20619;-71
2021/11/01 01:56:22;;;;;;;6.27;1.13;;;24.10;93.30;;;;;;5072543;28;20211;-69
2021/11/01 01:58:56;;;;;;;7.20;1.80;;;24.00;93.10;;;;;;5071258;28;20175;-70
2021/11/01 02:01:24;;;;;;;2.77;1.23;;;23.70;93.30;;;;;;5056031;28;20198;-68
2021/11/01 02:03:53;;;;;;;7.00;1.10;;;23.80;92.80;;;;;;5072330;28;20190;-71
2021/11/01 02:06:43;;;;;;;5.80;1.23;;;23.70;92.50;;;;;;5072196;28;20175;-68
2021/11/01 02:09:23;;;;;;;4.70;0.97;;;23.70;92.70;;;;;;5071156;28;20179;-70
2021/11/01 02:12:06;;;;;;;5.70;1.00;;;23.70;93.50;;;;;;5071721;28;20223;-70
2021/11/01 02:14:55;;;;;;;3.70;1.10;;;23.60;93.60;;;;;;5072405;28;20193;-69
2021/11/01 02:17:26;;;;;;;6.53;1.30;;;23.50;94.10;;;;;;5052196;28;20302;-69
2021/11/01 02:20:02;;;;;;;3.53;1.23;;;23.30;94.30;;;;;;5058989;28;20220;-69
2021/11/01 02:22:47;;;;;;;6.63;1.57;;;23.10;94.80;;;;;;5072107;28;20690;-78
2021/11/01 02:25:40;;;;;;;6.17;1.63;;;23.10;94.80;;;;;;5069746;28;20183;-69
2021/11/01 02:28:13;;;;;;;7.13;1.60;;;23.30;94.60;;;;;;5071836;28;20205;-71
2021/11/01 02:30:41;;;;;;;5.33;1.40;;;23.20;94.80;;;;;;5071256;28;20353;-71
2021/11/01 02:33:10;;;;;;;15.20;2.07;;;23.40;94.70;;;;;;5071970;28;20175;-69
2021/11/01 02:35:38;;;;;;;5.63;1.97;;;23.50;94.40;;;;;;5071371;28;20678;-68
2021/11/01 02:38:08;;;;;;;5.17;1.13;;;23.80;94.40;;;;;;5070695;28;20194;-69
2021/11/01 02:40:36;;;;;;;14.17;2.00;;;23.80;93.80;;;;;;5069924;28;20675;-73
2021/11/01 02:43:03;;;;;;;6.77;1.47;;;23.80;93.70;;;;;;5070707;28;20183;-70
2021/11/01 02:45:30;;;;;;;11.63;1.57;;;24.20;93.40;;;;;;5072009;28;20737;-70
2021/11/01 02:47:58;;;;;;;6.83;1.13;;;24.40;92.90;;;;;;5071649;28;20218;-71
2021/11/01 02:50:25;;;;;;;6.70;1.20;;;24.40;92.60;;;;;;5070821;28;20179;-69
2021/11/01 02:52:53;;;;;;;5.03;1.20;;;24.40;92.90;;;;;;5071628;28;20207;-70
2021/11/01 02:55:21;;;;;;;7.10;1.20;;;24.30;92.70;;;;;;5070718;28;20558;-68
2021/11/01 02:57:49;;;;;;;8.20;1.07;;;24.10;93.00;;;;;;5071938;28;20588;-69
2021/11/01 03:00:20;;;;;;;5.77;1.10;;;24.30;92.70;;;;;;5071756;28;20594;-69
2021/11/01 03:02:48;;;;;;;5.87;1.20;;;24.40;92.50;;;;;;5065701;28;20183;-73
2021/11/01 03:05:22;;;;;;;3.73;1.20;;;24.00;92.70;;;;;;5071528;28;20179;-67
2021/11/01 03:07:51;;;;;;;7.30;1.30;;;23.70;93.10;;;;;;5071912;28;20185;-72
2021/11/01 03:10:20;;;;;;;4.03;0.90;;;23.60;93.40;;;;;;5070486;28;20638;-67
2021/11/01 03:12:50;;;;;;;5.00;1.40;;;23.50;93.60;;;;;;5071457;28;20230;-68
2021/11/01 03:15:25;;;;;;;6.20;1.20;;;23.30;93.50;;;;;;5072107;28;20221;-67
2021/11/01 03:17:58;;;;;;;8.37;1.20;;;23.20;93.70;;;;;;5066378;28;20187;-69
2021/11/01 03:20:29;;;;;;;4.27;1.10;;;23.10;93.50;;;;;;5072080;28;20238;-71
2021/11/01 03:23:04;;;;;;;7.80;1.07;;;22.80;93.70;;;;;;5061539;28;20183;-68
2021/11/01 03:25:38;;;;;;;9.23;1.20;;;22.80;93.90;;;;;;5070892;28;20191;-71
2021/11/01 03:28:07;;;;;;;5.20;0.97;;;22.90;93.80;;;;;;5070764;28;20190;-69
2021/11/01 03:30:36;;;;;;;3.70;1.00;;;23.00;93.80;;;;;;5071204;28;20710;-69
2021/11/01 03:33:04;;;;;;;6.90;1.20;;;23.10;94.10;;;;;;5069388;28;20267;-68
2021/11/01 03:35:32;;;;;;;5.03;0.80;;;23.10;94.00;;;;;;5059732;28;20207;-69
2021/11/01 03:38:01;;;;;;;3.90;0.80;;;23.10;94.10;;;;;;5064970;28;20179;-70
2021/11/01 03:40:32;;;;;;;3.93;1.00;;;22.90;93.80;;;;;;5071175;28;20229;-69
2021/11/01 03:43:03;;;;;;;5.40;1.10;;;22.80;93.80;;;;;;5071254;28;20195;-69
2021/11/01 03:45:33;;;;;;;5.13;1.30;;;22.90;93.80;;;;;;5064232;28;20262;-69
2021/11/01 03:48:04;;;;;;;5.23;1.30;;;22.90;94.00;;;;;;5069638;28;20266;-68
2021/11/01 03:53:05;;;;;;;7.50;1.07;;;22.90;94.30;;;;;;5055126;28;20183;-68
2021/11/01 03:55:33;;;;;;;4.77;1.30;;;22.90;94.70;;;;;;5063844;28;20562;-70
2021/11/01 03:58:02;;;;;;;4.77;1.40;;;23.00;94.90;;;;;;5070051;28;20186;-74
2021/11/01 04:00:34;;;;;;;8.60;1.50;;;23.10;95.00;;;;;;5068705;28;20187;-72
2021/11/01 04:03:02;;;;;;;5.17;1.37;;;23.20;94.90;;;;;;5071708;28;20552;-66
2021/11/01 04:05:30;;;;;;;4.97;1.03;;;23.40;94.90;;;;;;5073786;28;20211;-67
2021/11/01 04:07:58;;;;;;;3.67;0.90;;;23.60;94.70;;;;;;5071393;28;20182;-68
2021/11/01 04:10:25;;;;;;;7.50;1.13;;;23.60;94.80;;;;;;5074347;28;20180;-72
2021/11/01 04:12:53;;;;;;;6.87;1.20;;;23.50;94.80;;;;;;5070363;28;20261;-69
2021/11/01 04:15:23;;;;;;;3.77;1.03;;;23.60;94.90;;;;;;5068774;28;20187;-70
2021/11/01 04:18:03;;;;;;;11.33;1.20;;;24.00;94.50;;;;;;5079848;28;20197;-71
2021/11/01 04:20:51;;;;;;;4.43;1.20;;;23.80;94.60;;;;;;5076570;28;20184;-74
2021/11/01 04:23:21;;;;;;;11.77;1.53;;;23.80;94.90;;;;;;5066476;28;20830;-72
2021/11/01 04:25:48;;;;;;;8.10;1.43;;;23.90;95.00;;;;;;5070341;28;20547;-71
2021/11/01 04:28:16;;;;;;;7.53;1.30;;;24.10;94.70;;;;;;5073689;28;20183;-70
2021/11/01 04:30:48;;;;;;;6.50;1.43;;;24.10;94.80;;;;;;5073719;28;20267;-74
2021/11/01 04:33:19;;;;;;;9.13;1.33;;;24.50;94.90;;;;;;5065742;28;20214;-70
2021/11/01 04:35:46;;;;;;;4.83;0.93;;;24.60;94.40;;;;;;5073246;28;20211;-70
2021/11/01 04:38:26;;;;;;;5.20;1.07;;;24.60;94.60;;;;;;5078319;28;20179;-70
2021/11/01 04:54:05;;;;;;;7.00;1.20;;;23.50;95.30;;;;;;5074198;28;20730;-70
2021/11/01 04:56:32;;;;;;;4.27;1.20;;;23.30;95.60;;;;;;5077440;28;20684;-69
2021/11/01 04:59:00;;;;;;;8.70;1.63;;;23.30;95.90;;;;;;5074501;28;20201;-70
2021/11/01 05:01:47;;;;;;;9.13;1.20;;;23.20;95.80;;;;;;5072191;28;20189;-65
2021/11/01 05:04:18;;;;;;;8.13;1.20;;;23.10;96.20;;;;;;5071865;28;20184;-72
2021/11/01 05:06:51;;;;;;;5.47;1.30;;;23.00;96.20;;;;;;5067838;28;20198;-70
2021/11/01 05:09:29;;;;;;;5.20;1.50;;;22.90;96.60;;;;;;5067931;28;20844;-73
2021/11/01 05:12:10;;;;;;;8.70;1.50;;;23.00;96.60;;;;;;5069961;28;20226;-73
2021/11/01 05:20:07;;;;;;;7.37;1.00;;;24.10;95.60;;;;;;5074222;28;20215;-74
2021/11/01 05:25:08;;;;;;;10.07;1.53;;;24.30;95.50;;;;;;5077057;28;20198;-72
2021/11/01 05:30:08;;;;;;;9.23;1.43;;;23.80;95.80;;;;;;5071316;28;20664;-70
2021/11/01 05:32:40;;;;;;;3.60;1.23;;;23.60;96.00;;;;;;5074766;28;20189;-69
2021/11/01 05:35:08;;;;;;;8.77;1.20;;;23.70;96.30;;;;;;5071824;28;20187;-69
2021/11/01 05:37:36;;;;;;;5.80;1.00;;;23.90;95.80;;;;;;5071992;28;20238;-71
2021/11/01 05:40:04;;;;;;;9.03;1.27;;;23.80;95.80;;;;;;5074952;28;20701;-71
2021/11/01 05:42:31;;;;;;;5.20;1.63;;;23.70;96.00;;;;;;5074879;28;20641;-73
2021/11/01 05:44:58;;;;;;;4.27;1.60;;;23.70;95.90;;;;;;5076627;28;20191;-75
2021/11/01 05:47:26;;;;;;;10.00;1.73;;;23.30;96.50;;;;;;5071573;28;20179;-69
2021/11/01 05:49:53;;;;;;;10.13;1.10;;;23.00;97.20;;;;;;5072609;28;20195;-69
2021/11/01 05:52:27;;;;;;;4.77;1.07;;;22.70;97.60;;;;;;5072209;28;20237;-66
2021/11/01 05:55:00;;;;;;;8.87;1.50;;;22.80;98.00;;;;;;5071898;28;20183;-70
2021/11/01 06:07:46;;;;;;;4.67;1.20;;;22.40;98.70;;;;;;5072375;28;20675;-69
2021/11/01 06:10:35;;;;;;;6.97;1.30;;;22.40;99.00;;;;;;5072377;28;20578;-68
2021/11/01 06:15:46;;;;;;;10.30;2.10;;;22.10;99.60;;;;;;5072471;28;20225;-69
2021/11/01 06:18:14;;;;;;;17.03;4.13;;;21.90;99.80;;;;;;5072373;28;20171;-70
2021/11/01 06:20:42;;;;;;;10.13;2.70;;;21.70;99.90;;;;;;5072297;28;20194;-71
2021/11/01 06:23:09;;;;;;;9.53;1.80;;;21.60;99.90;;;;;;5071244;28;20219;-70
2021/11/01 06:25:38;;;;;;;14.23;2.67;;;21.50;99.90;;;;;;5072523;28;20258;-73
2021/11/01 06:28:10;;;;;;;7.77;1.53;;;21.50;99.90;;;;;;5072378;28;20233;-70
2021/11/01 06:30:42;;;;;;;9.57;2.03;;;21.40;99.90;;;;;;5052748;28;20234;-70
2021/11/01 06:52:51;;;;;;;7.37;1.27;;;21.20;99.90;;;;;;5067730;28;20654;-68
2021/11/01 06:55:30;;;;;;;10.53;1.30;;;21.20;99.90;;;;;;5065270;28;20194;-69
2021/11/01 07:19:47;;;;;;;8.33;1.43;;;21.00;99.90;;;;;;5072220;28;20171;-73
2021/11/01 08:38:26;;;;;;;8.13;1.37;;;20.20;99.90;;;;;;5074165;28;20542;-68
2021/11/01 08:51:47;;;;;;;9.97;1.50;;;20.20;99.90;;;;;;5067323;28;20190;-69
2021/11/01 09:05:33;;;;;;;5.10;1.10;;;20.20;99.90;;;;;;5071804;28;20636;-71
2021/11/01 09:10:54;;;;;;;8.87;1.77;;;20.10;99.90;;;;;;5068195;28;20605;-69
2021/11/01 09:18:47;;;;;;;10.73;1.63;;;20.10;99.90;;;;;;5071881;28;20202;-71
2021/11/01 09:26:40;;;;;;;10.10;1.53;;;20.00;99.90;;;;;;5072317;28;20175;-71
2021/11/01 09:37:54;;;;;;;7.27;1.33;;;20.00;99.90;;;;;;5072908;28;20225;-69
2021/11/01 09:43:06;;;;;;;6.57;1.47;;;20.00;99.90;;;;;;5073379;28;20198;-73
2021/11/01 09:45:36;;;;;;;8.57;1.20;;;20.00;99.90;;;;;;5072732;28;20199;-74
2021/11/01 09:48:07;;;;;;;8.03;1.93;;;19.90;99.90;;;;;;5068529;28;20631;-71
2021/11/01 09:50:35;;;;;;;13.53;1.50;;;19.90;99.90;;;;;;5073356;28;20649;-70
2021/11/01 09:53:19;;;;;;;7.03;1.37;;;19.90;99.90;;;;;;5071285;28;20195;-71
2021/11/01 09:55:49;;;;;;;6.27;1.53;;;19.90;99.90;;;;;;5071075;28;20206;-72
2021/11/01 10:01:06;;;;;;;4.83;1.00;;;19.90;99.90;;;;;;5072065;28;20216;-71
2021/11/01 10:03:39;;;;;;;8.93;1.10;;;19.90;99.90;;;;;;5071489;28;20175;-71
2021/11/01 10:06:09;;;;;;;11.80;1.50;;;19.90;99.90;;;;;;5072830;28;20187;-67
2021/11/01 10:08:36;;;;;;;11.93;1.97;;;19.90;99.90;;;;;;5071947;28;20213;-71
2021/11/01 10:11:19;;;;;;;6.87;1.30;;;19.90;99.90;;;;;;5071858;28;20236;-71
2021/11/01 10:14:01;;;;;;;8.43;1.23;;;19.90;99.90;;;;;;5071610;28;20223;-73
2021/11/01 10:19:31;;;;;;;10.53;2.00;;;19.80;99.90;;;;;;5062698;28;20461;-71
2021/11/01 10:22:04;;;;;;;7.30;1.63;;;19.80;99.90;;;;;;5072289;28;20207;-71
2021/11/01 10:24:40;;;;;;;9.90;1.53;;;19.80;99.90;;;;;;5072000;28;20190;-71
2021/11/01 10:27:14;;;;;;;9.07;1.40;;;19.80;99.90;;;;;;5071520;28;20289;-71
2021/11/01 10:29:57;;;;;;;8.87;1.33;;;19.80;99.90;;;;;;5072276;28;20873;-71
2021/11/01 10:32:48;;;;;;;7.93;1.47;;;19.80;99.90;;;;;;5071512;28;20620;-70
2021/11/01 10:35:20;;;;;;;8.67;1.40;;;19.80;99.90;;;;;;5069259;28;20764;-69
2021/11/01 10:38:37;;;;;;;8.03;1.40;;;19.80;99.90;;;;;;5071921;28;20198;-69
2021/11/01 10:41:17;;;;;;;9.40;1.70;;;19.80;99.90;;;;;;5066506;28;20187;-70
2021/11/01 10:44:02;;;;;;;8.13;1.97;;;19.80;99.90;;;;;;5069231;28;20489;-71
2021/11/01 10:58:12;;;;;;;;;;;;;;;;;;;;;
2021/11/01 11:14:24;;;;;;;7.43;1.20;;;19.70;99.90;;;;;;5074848;28;20261;-70
2021/11/01 11:29:17;;;;;;;11.03;1.77;;;19.70;99.90;;;;;;5067338;28;20282;-69
2021/11/01 11:38:13;;;;;;;6.90;1.43;;;19.70;99.90;;;;;;5073820;28;20226;-70
2021/11/01 11:41:09;;;;;;;9.67;1.57;;;19.70;99.90;;;;;;5075418;28;20252;-69
2021/11/01 11:44:01;;;;;;;7.33;1.13;;;19.70;99.90;;;;;;5075888;28;20187;-71
2021/11/01 11:49:24;;;;;;;5.43;1.20;;;19.70;99.90;;;;;;5069893;28;20661;-70
2021/11/01 11:52:07;;;;;;;5.60;1.20;;;19.70;99.90;;;;;;5075364;28;20213;-71
2021/11/01 11:54:42;;;;;;;11.57;1.27;;;19.70;99.90;;;;;;5070070;28;20203;-71
2021/11/01 11:57:29;;;;;;;10.90;1.60;;;19.60;99.90;;;;;;5074739;28;20222;-69
2021/11/01 11:59:58;;;;;;;13.67;1.87;;;19.60;99.90;;;;;;5073913;28;20179;-69
2021/11/01 12:02:39;;;;;;;8.80;1.60;;;19.60;99.90;;;;;;5075315;28;20254;-70
2021/11/01 12:05:18;;;;;;;5.43;1.33;;;19.70;99.90;;;;;;5075509;28;20240;-70
2021/11/01 12:08:11;;;;;;;10.87;1.40;;;19.60;99.90;;;;;;5074472;28;20696;-70
2021/11/01 12:13:42;;;;;;;10.07;2.07;;;19.60;99.90;;;;;;5074543;28;20780;-72
2021/11/01 12:18:59;;;;;;;9.50;1.60;;;19.60;99.90;;;;;;5068613;28;20187;-70
2021/11/01 12:21:27;;;;;;;10.07;1.27;;;19.60;99.90;;;;;;5067709;28;20187;-69
2021/11/01 12:23:55;;;;;;;4.40;1.40;;;19.60;99.90;;;;;;5074805;28;20179;-70
2021/11/01 12:26:25;;;;;;;9.67;1.33;;;19.60;99.90;;;;;;5075204;28;20203;-70
2021/11/01 12:29:01;;;;;;;17.97;2.07;;;19.60;99.90;;;;;;5074360;28;20650;-69
2021/11/01 12:31:30;;;;;;;10.87;1.40;;;19.50;99.90;;;;;;5074862;28;20191;-70
2021/11/01 12:34:02;;;;;;;9.40;1.63;;;19.60;99.90;;;;;;5074412;28;20167;-70
2021/11/01 12:36:46;;;;;;;16.90;2.17;;;19.60;99.90;;;;;;5074683;28;20213;-69
2021/11/01 12:39:33;;;;;;;10.57;1.50;;;19.60;99.90;;;;;;5077361;28;20645;-69
2021/11/01 12:42:29;;;;;;;9.07;1.50;;;19.60;99.90;;;;;;5073324;28;20236;-70
2021/11/01 12:58:28;;;;;;;11.10;1.30;;;19.30;99.90;;;;;;5069804;28;20183;-69
2021/11/01 13:01:04;;;;;;;12.77;1.50;;;19.30;99.90;;;;;;5074576;28;20164;-70
2021/11/01 13:03:32;;;;;;;10.17;1.53;;;19.30;99.90;;;;;;5074551;28;20262;-71
2021/11/01 13:06:15;;;;;;;11.90;1.97;;;19.40;99.90;;;;;;5074288;28;20175;-70
2021/11/01 13:08:50;;;;;;;8.07;1.63;;;19.40;99.90;;;;;;5074584;28;20706;-71
2021/11/01 13:12:28;;;;;;;8.97;1.60;;;19.30;99.90;;;;;;5074469;28;20257;-72
2021/11/01 13:14:39;;;;;;;9.53;1.47;;;19.30;99.90;;;;;;5060500;28;20651;-70
2021/11/01 13:19:49;;;;;;;12.13;1.73;;;19.30;99.90;;;;;;5074133;28;20225;-72
2021/11/01 13:22:32;;;;;;;10.23;1.63;;;19.30;99.90;;;;;;5073718;28;20220;-70
2021/11/01 13:28:01;;;;;;;7.53;1.30;;;19.20;99.90;;;;;;5073462;28;20183;-71
2021/11/01 13:38:59;;;;;;;11.10;1.50;;;19.10;99.90;;;;;;5073800;28;20175;-70
2021/11/01 13:41:28;;;;;;;10.33;1.20;;;19.10;99.90;;;;;;5073678;28;20408;-69
2021/11/01 13:44:11;;;;;;;11.00;1.43;;;19.10;99.90;;;;;;5073498;28;20189;-69
2021/11/01 13:47:04;;;;;;;7.23;1.90;;;19.10;99.90;;;;;;5053944;28;20580;-70
2021/11/01 13:49:37;;;;;;;13.00;2.60;;;19.10;99.90;;;;;;5052228;28;20230;-72
2021/11/01 13:52:20;;;;;;;11.03;2.20;;;19.10;99.90;;;;;;5073707;28;20198;-69
2021/11/01 13:55:10;;;;;;;11.57;1.80;;;19.00;99.90;;;;;;5071868;28;20182;-71
2021/11/01 13:57:56;;;;;;;9.27;1.80;;;19.00;99.90;;;;;;5072507;28;20234;-69
2021/11/01 14:11:10;;;;;;;11.97;1.67;;;18.90;99.90;;;;;;5073272;28;20710;-69
2021/11/01 14:16:32;;;;;;;9.43;1.37;;;18.90;99.90;;;;;;5068054;28;20201;-69
2021/11/01 14:29:31;;;;;;;6.23;1.37;;;18.90;99.90;;;;;;5072830;28;20178;-70
2021/11/01 14:32:37;;;;;;;14.07;2.50;;;18.80;99.90;;;;;;5072927;28;20190;-74
2021/11/01 14:35:29;;;;;;;5.47;1.40;;;18.80;99.90;;;;;;5072635;28;20179;-69
2021/11/01 15:15:47;;;;;;;4.70;1.07;;;18.50;99.90;;;;;;5071200;28;20182;-69
2021/11/01 15:21:14;;;;;;;8.00;1.43;;;18.50;99.90;;;;;;5072144;28;20207;-69
2021/11/01 15:26:38;;;;;;;10.40;1.40;;;18.40;99.90;;;;;;5072155;28;20175;-69
2021/11/01 16:16:03;;;;;;;9.17;1.53;;;17.50;99.90;;;;;;5075141;28;20186;-70
2021/11/01 16:18:18;;;;;;;7.50;1.80;;;17.50;99.90;;;;;;5074583;28;20539;-69
2021/11/01 16:20:47;;;;;;;9.07;1.80;;;17.40;99.90;;;;;;5075332;28;20175;-69
2021/11/01 16:25:43;;;;;;;12.33;1.60;;;17.30;99.90;;;;;;5075026;28;20545;-69
2021/11/01 16:28:11;;;;;;;6.37;1.40;;;17.30;99.90;;;;;;5074523;28;20236;-68
2021/11/01 16:30:44;;;;;;;5.90;1.47;;;17.20;99.90;;;;;;5075210;28;20192;-70
2021/11/01 16:33:12;;;;;;;10.50;1.13;;;17.20;99.90;;;;;;5074514;28;20183;-69
2021/11/01 16:35:44;;;;;;;5.97;1.27;;;17.20;99.90;;;;;;5074792;28;20199;-72
2021/11/01 16:38:24;;;;;;;4.63;1.20;;;17.10;99.90;;;;;;5071517;28;20195;-69
2021/11/01 16:40:54;;;;;;;7.20;1.40;;;17.10;99.90;;;;;;5060836;28;20277;-69
2021/11/01 16:43:25;;;;;;;6.00;1.33;;;17.10;99.90;;;;;;5074876;28;20221;-69
2021/11/01 16:45:55;;;;;;;8.77;1.67;;;17.10;99.90;;;;;;5073951;28;20186;-69
2021/11/01 16:48:23;;;;;;;7.63;1.40;;;17.00;99.90;;;;;;5067928;28;20232;-69
2021/11/01 16:50:56;;;;;;;13.57;1.63;;;17.00;99.90;;;;;;5075124;28;20212;-68
2021/11/01 16:53:24;;;;;;;9.37;1.37;;;17.00;99.90;;;;;;5074267;28;20187;-69
2021/11/01 16:55:52;;;;;;;7.00;1.53;;;17.00;99.90;;;;;;5071641;28;20190;-69
2021/11/01 16:58:27;;;;;;;9.27;1.60;;;16.90;99.90;;;;;;5074336;28;20197;-70
2021/11/01 17:01:00;;;;;;;8.60;1.63;;;16.90;99.90;;;;;;5057533;28;20186;-71
2021/11/01 17:03:51;;;;;;;9.87;1.10;;;16.90;99.90;;;;;;5073414;28;20274;-69
2021/11/01 17:23:11;;;;;;;7.00;1.23;;;16.80;99.90;;;;;;5074321;28;20586;-68
2021/11/01 17:26:01;;;;;;;6.03;1.30;;;16.90;99.90;;;;;;5074217;28;20179;-68
2021/11/01 17:28:49;;;;;;;6.40;1.37;;;16.90;99.90;;;;;;5074141;28;20202;-68
2021/11/01 17:37:13;;;;;;;8.53;1.40;;;16.70;99.90;;;;;;5072577;28;20593;-68
2021/11/01 18:41:14;;;;;;;6.00;1.70;;;16.40;99.90;;;;;;5072709;28;20182;-69
2021/11/01 18:51:56;;;;;;;6.67;1.67;;;16.50;99.90;;;;;;5058727;28;20315;-69
2021/11/01 18:54:38;;;;;;;12.37;2.37;;;16.60;99.90;;;;;;5072805;28;20184;-69
2021/11/01 18:57:07;;;;;;;8.80;1.67;;;16.60;99.90;;;;;;5072284;28;20233;-68
2021/11/01 18:59:39;;;;;;;10.47;1.97;;;16.60;99.90;;;;;;5072293;28;20182;-69
2021/11/01 19:02:33;;;;;;;10.60;1.87;;;16.70;99.90;;;;;;5072415;28;20494;-69
2021/11/01 19:05:06;;;;;;;8.53;1.87;;;16.70;99.90;;;;;;5071488;28;20191;-69
2021/11/01 19:07:44;;;;;;;7.27;1.70;;;16.80;99.90;;;;;;5072085;28;20294;-69
2021/11/01 20:05:56;;;;;;;8.90;1.93;;;18.30;99.90;;;;;;5072302;28;20183;-68
2021/11/01 20:13:52;;;;;;;8.50;2.13;;;18.50;99.90;;;;;;5074952;28;20242;-70
2021/11/01 21:26:20;;;;;;;5.87;0.90;;;20.60;99.90;;;;;;5068014;28;20264;-70
2021/11/01 21:28:50;;;;;;;6.70;1.50;;;20.40;99.90;;;;;;5069213;28;20182;-69
2021/11/01 21:31:19;;;;;;;4.43;1.10;;;20.50;99.90;;;;;;5072216;28;20213;-69
2021/11/01 21:33:51;;;;;;;6.10;1.27;;;20.60;99.90;;;;;;5070965;28;20201;-70
2021/11/01 21:36:25;;;;;;;9.57;1.90;;;20.80;99.90;;;;;;5069727;28;20692;-68
2021/11/01 21:38:57;;;;;;;9.37;1.50;;;21.00;99.90;;;;;;5070387;28;20178;-70
2021/11/01 21:41:27;;;;;;;4.30;1.30;;;21.00;99.90;;;;;;5069918;28;20167;-69
2021/11/01 21:43:55;;;;;;;10.47;1.33;;;21.10;99.90;;;;;;5071807;28;20539;-68
2021/11/01 21:46:22;;;;;;;8.17;1.43;;;21.30;99.90;;;;;;5071101;28;20195;-69
2021/11/01 21:48:51;;;;;;;11.17;1.30;;;21.40;99.90;;;;;;5072049;28;20175;-70
2021/11/01 21:51:19;;;;;;;9.03;1.20;;;21.30;99.90;;;;;;5064286;28;20259;-73
2021/11/01 21:53:53;;;;;;;3.90;0.83;;;21.50;99.90;;;;;;5063013;28;20501;-69
2021/11/01 21:56:20;;;;;;;8.77;1.60;;;21.60;99.90;;;;;;5068656;28;20249;-67
2021/11/01 22:17:43;;;;;;;8.73;1.00;;;22.20;99.90;;;;;;5072057;28;20225;-69
2021/11/01 22:20:15;;;;;;;4.40;0.83;;;22.40;99.90;;;;;;5070291;28;20187;-69
2021/11/01 22:25:24;;;;;;;12.83;1.03;;;22.20;99.90;;;;;;5071366;28;20180;-69
2021/11/01 22:41:23;;;;;;;2.47;0.70;;;22.30;99.90;;;;;;5071892;28;20179;-69
2021/11/01 22:57:45;;;;;;;3.90;0.73;;;22.60;99.40;;;;;;5057881;28;20213;-67
2021/11/01 23:00:19;;;;;;;3.87;0.77;;;22.90;99.40;;;;;;5071776;28;20194;-73
2021/11/01 23:02:51;;;;;;;5.30;0.70;;;23.10;99.20;;;;;;5072265;28;20701;-70
2021/11/01 23:32:42;;;;;;;4.23;0.90;;;23.60;98.20;;;;;;5065376;28;20242;-73
2021/11/01 23:35:10;;;;;;;6.80;1.00;;;23.60;97.90;;;;;;5057675;28;20645;-76
2021/11/01 23:37:39;;;;;;;5.30;1.00;;;23.50;98.10;;;;;;5075416;28;20708;-69
2021/11/01 23:40:07;;;;;;;2.60;0.60;;;23.90;97.50;;;;;;5075457;28;20275;-71
2021/11/01 23:42:34;;;;;;;6.20;1.00;;;24.00;97.20;;;;;;5075792;28;20181;-67
2021/11/01 23:45:01;;;;;;;3.40;0.77;;;24.00;96.80;;;;;;5064326;28;20171;-71
2021/11/01 23:47:28;;;;;;;2.40;0.70;;;23.90;96.60;;;;;;5091193;28;20644;-70
2021/11/01 23:49:56;;;;;;;6.07;1.20;;;24.00;97.10;;;;;;5092150;28;20220;-70
2021/11/01 23:52:24;;;;;;;5.37;0.90;;;24.30;96.80;;;;;;5095458;28;20536;-72
2021/11/01 23:54:51;;;;;;;4.93;0.90;;;24.30;96.00;;;;;;5058477;28;20599;-75
2021/11/01 23:57:22;;;;;;;7.37;1.10;;;24.40;96.20;;;;;;5080200;28;20362;-69
2021/11/01 23:59:49;;;;;;;3.07;1.00;;;24.30;95.90;;;;;;5092762;28;20186;-72
